sensor_id;sensor_type;location;lat;lon;timestamp;P1;durP1;ratioP1;P2;durP2;ratioP2
10410;SDS011;5251;52.112;8.606;2023-06-10T00:00:25;7.13;;;4.53;;
10410;SDS011;5251;52.112;8.606;2023-06-10T00:02:50;5.70;;;4.60;;
10410;SDS011;5251;52.112;8.606;2023-06-10T00:05:16;5.30;;;4.53;;
10410;SDS011;5251;52.112;8.606;2023-06-10T00:07:45;6.88;;;4.82;;
10410;SDS011;5251;52.112;8.606;2023-06-10T00:10:11;6.10;;;4.40;;
10410;SDS011;5251;52.112;8.606;2023-06-10T00:12:36;6.30;;;4.43;;
10410;SDS011;5251;52.112;8.606;2023-06-10T00:15:06;7.07;;;5.15;;
10410;SDS011;5251;52.112;8.606;2023-06-10T00:17:32;5.13;;;4.53;;
10410;SDS011;5251;52.112;8.606;2023-06-10T00:19:58;6.85;;;5.18;;
10410;SDS011;5251;52.112;8.606;2023-06-10T00:22:24;7.55;;;4.70;;
10410;SDS011;5251;52.112;8.606;2023-06-10T00:24:54;5.88;;;4.60;;
10410;SDS011;5251;52.112;8.606;2023-06-10T00:27:21;6.28;;;4.68;;
10410;SDS011;5251;52.112;8.606;2023-06-10T00:29:47;5.93;;;4.50;;
10410;SDS011;5251;52.112;8.606;2023-06-10T00:32:12;6.60;;;5.00;;
10410;SDS011;5251;52.112;8.606;2023-06-10T00:34:38;8.70;;;4.25;;
10410;SDS011;5251;52.112;8.606;2023-06-10T00:37:03;5.47;;;4.75;;
10410;SDS011;5251;52.112;8.606;2023-06-10T00:39:29;6.32;;;4.88;;
10410;SDS011;5251;52.112;8.606;2023-06-10T00:41:55;7.18;;;4.55;;
10410;SDS011;5251;52.112;8.606;2023-06-10T00:44:20;7.03;;;4.82;;
10410;SDS011;5251;52.112;8.606;2023-06-10T00:46:46;4.90;;;4.35;;
10410;SDS011;5251;52.112;8.606;2023-06-10T00:49:12;7.07;;;5.18;;
10410;SDS011;5251;52.112;8.606;2023-06-10T00:51:38;7.03;;;4.97;;
10410;SDS011;5251;52.112;8.606;2023-06-10T00:54:04;7.88;;;4.68;;
10410;SDS011;5251;52.112;8.606;2023-06-10T00:56:30;4.63;;;4.22;;
10410;SDS011;5251;52.112;8.606;2023-06-10T00:58:59;6.30;;;4.68;;
10410;SDS011;5251;52.112;8.606;2023-06-10T01:01:25;8.88;;;4.90;;
10410;SDS011;5251;52.112;8.606;2023-06-10T01:03:51;6.85;;;5.07;;
10410;SDS011;5251;52.112;8.606;2023-06-10T01:08:47;7.93;;;5.05;;
10410;SDS011;5251;52.112;8.606;2023-06-10T01:11:50;7.63;;;5.40;;
10410;SDS011;5251;52.112;8.606;2023-06-10T01:14:33;5.53;;;4.72;;
10410;SDS011;5251;52.112;8.606;2023-06-10T01:17:00;6.15;;;4.75;;
10410;SDS011;5251;52.112;8.606;2023-06-10T01:19:28;8.07;;;5.10;;
10410;SDS011;5251;52.112;8.606;2023-06-10T01:21:56;7.15;;;4.90;;
10410;SDS011;5251;52.112;8.606;2023-06-10T01:24:23;6.85;;;4.60;;
10410;SDS011;5251;52.112;8.606;2023-06-10T01:26:49;5.78;;;4.60;;
10410;SDS011;5251;52.112;8.606;2023-06-10T01:29:18;5.97;;;5.00;;
10410;SDS011;5251;52.112;8.606;2023-06-10T01:31:48;7.82;;;4.90;;
10410;SDS011;5251;52.112;8.606;2023-06-10T01:34:26;6.18;;;4.60;;
10410;SDS011;5251;52.112;8.606;2023-06-10T01:36:52;5.80;;;4.75;;
10410;SDS011;5251;52.112;8.606;2023-06-10T01:39:22;7.80;;;5.13;;
10410;SDS011;5251;52.112;8.606;2023-06-10T01:41:50;7.40;;;4.53;;
10410;SDS011;5251;52.112;8.606;2023-06-10T01:44:18;6.45;;;5.00;;
10410;SDS011;5251;52.112;8.606;2023-06-10T01:46:45;6.43;;;4.80;;
10410;SDS011;5251;52.112;8.606;2023-06-10T01:49:11;6.47;;;4.80;;
10410;SDS011;5251;52.112;8.606;2023-06-10T01:51:37;5.50;;;4.50;;
10410;SDS011;5251;52.112;8.606;2023-06-10T01:54:03;7.18;;;4.95;;
10410;SDS011;5251;52.112;8.606;2023-06-10T01:56:29;5.78;;;4.15;;
10410;SDS011;5251;52.112;8.606;2023-06-10T01:58:54;6.65;;;4.70;;
10410;SDS011;5251;52.112;8.606;2023-06-10T02:01:24;5.80;;;4.55;;
10410;SDS011;5251;52.112;8.606;2023-06-10T02:03:50;5.68;;;4.40;;
10410;SDS011;5251;52.112;8.606;2023-06-10T02:06:15;8.10;;;4.28;;
10410;SDS011;5251;52.112;8.606;2023-06-10T02:08:41;6.03;;;4.45;;
10410;SDS011;5251;52.112;8.606;2023-06-10T02:11:06;8.35;;;4.18;;
10410;SDS011;5251;52.112;8.606;2023-06-10T02:13:32;5.38;;;3.90;;
10410;SDS011;5251;52.112;8.606;2023-06-10T02:15:58;7.47;;;4.25;;
10410;SDS011;5251;52.112;8.606;2023-06-10T02:18:24;8.07;;;4.45;;
10410;SDS011;5251;52.112;8.606;2023-06-10T02:20:52;6.93;;;4.50;;
10410;SDS011;5251;52.112;8.606;2023-06-10T02:23:17;6.38;;;4.25;;
10410;SDS011;5251;52.112;8.606;2023-06-10T02:25:43;6.05;;;4.28;;
10410;SDS011;5251;52.112;8.606;2023-06-10T02:28:09;6.35;;;4.18;;
10410;SDS011;5251;52.112;8.606;2023-06-10T02:30:34;8.60;;;4.55;;
10410;SDS011;5251;52.112;8.606;2023-06-10T02:33:00;5.85;;;4.28;;
10410;SDS011;5251;52.112;8.606;2023-06-10T02:35:26;7.90;;;4.40;;
10410;SDS011;5251;52.112;8.606;2023-06-10T02:37:52;5.20;;;4.45;;
10410;SDS011;5251;52.112;8.606;2023-06-10T02:40:17;6.85;;;4.97;;
10410;SDS011;5251;52.112;8.606;2023-06-10T02:42:43;5.43;;;4.30;;
10410;SDS011;5251;52.112;8.606;2023-06-10T02:45:09;5.45;;;4.25;;
10410;SDS011;5251;52.112;8.606;2023-06-10T02:47:34;5.15;;;4.15;;
10410;SDS011;5251;52.112;8.606;2023-06-10T02:50:02;7.30;;;4.80;;
10410;SDS011;5251;52.112;8.606;2023-06-10T02:52:28;7.00;;;4.93;;
10410;SDS011;5251;52.112;8.606;2023-06-10T02:54:55;5.30;;;4.18;;
10410;SDS011;5251;52.112;8.606;2023-06-10T02:57:20;5.63;;;4.70;;
10410;SDS011;5251;52.112;8.606;2023-06-10T02:59:46;5.90;;;4.22;;
10410;SDS011;5251;52.112;8.606;2023-06-10T03:02:11;5.85;;;4.40;;
10410;SDS011;5251;52.112;8.606;2023-06-10T03:04:37;6.47;;;4.55;;
10410;SDS011;5251;52.112;8.606;2023-06-10T03:07:03;5.65;;;3.95;;
10410;SDS011;5251;52.112;8.606;2023-06-10T03:09:32;8.65;;;4.55;;
10410;SDS011;5251;52.112;8.606;2023-06-10T03:11:58;4.43;;;3.90;;
10410;SDS011;5251;52.112;8.606;2023-06-10T03:14:24;5.32;;;4.07;;
10410;SDS011;5251;52.112;8.606;2023-06-10T03:16:50;6.32;;;3.80;;
10410;SDS011;5251;52.112;8.606;2023-06-10T03:19:16;4.93;;;3.65;;
10410;SDS011;5251;52.112;8.606;2023-06-10T03:21:43;4.88;;;4.30;;
10410;SDS011;5251;52.112;8.606;2023-06-10T03:24:09;6.13;;;3.75;;
10410;SDS011;5251;52.112;8.606;2023-06-10T03:26:36;5.18;;;3.88;;
10410;SDS011;5251;52.112;8.606;2023-06-10T03:29:01;6.22;;;3.85;;
10410;SDS011;5251;52.112;8.606;2023-06-10T03:31:27;4.13;;;3.72;;
10410;SDS011;5251;52.112;8.606;2023-06-10T03:33:52;5.50;;;4.07;;
10410;SDS011;5251;52.112;8.606;2023-06-10T03:36:18;8.80;;;5.00;;
10410;SDS011;5251;52.112;8.606;2023-06-10T03:38:43;6.93;;;3.97;;
10410;SDS011;5251;52.112;8.606;2023-06-10T03:41:09;5.50;;;3.90;;
10410;SDS011;5251;52.112;8.606;2023-06-10T03:43:35;4.03;;;3.47;;
10410;SDS011;5251;52.112;8.606;2023-06-10T03:46:00;4.65;;;4.10;;
10410;SDS011;5251;52.112;8.606;2023-06-10T03:48:26;5.25;;;3.80;;
10410;SDS011;5251;52.112;8.606;2023-06-10T03:50:52;6.20;;;3.90;;
10410;SDS011;5251;52.112;8.606;2023-06-10T03:53:17;6.30;;;4.30;;
10410;SDS011;5251;52.112;8.606;2023-06-10T03:55:43;4.78;;;3.95;;
10410;SDS011;5251;52.112;8.606;2023-06-10T03:58:10;5.25;;;3.78;;
10410;SDS011;5251;52.112;8.606;2023-06-10T04:00:38;4.97;;;4.00;;
10410;SDS011;5251;52.112;8.606;2023-06-10T04:03:06;5.00;;;3.70;;
10410;SDS011;5251;52.112;8.606;2023-06-10T04:05:34;5.93;;;3.92;;
10410;SDS011;5251;52.112;8.606;2023-06-10T04:07:59;6.82;;;3.75;;
10410;SDS011;5251;52.112;8.606;2023-06-10T04:10:26;5.18;;;3.65;;
10410;SDS011;5251;52.112;8.606;2023-06-10T04:12:52;4.93;;;3.60;;
10410;SDS011;5251;52.112;8.606;2023-06-10T04:15:17;5.78;;;3.70;;
10410;SDS011;5251;52.112;8.606;2023-06-10T04:17:43;4.57;;;3.33;;
10410;SDS011;5251;52.112;8.606;2023-06-10T04:20:09;6.30;;;3.70;;
10410;SDS011;5251;52.112;8.606;2023-06-10T04:22:34;4.40;;;3.50;;
10410;SDS011;5251;52.112;8.606;2023-06-10T04:25:01;6.97;;;3.50;;
10410;SDS011;5251;52.112;8.606;2023-06-10T04:27:27;5.20;;;3.42;;
10410;SDS011;5251;52.112;8.606;2023-06-10T04:29:52;4.50;;;3.20;;
10410;SDS011;5251;52.112;8.606;2023-06-10T04:32:18;4.20;;;3.58;;
10410;SDS011;5251;52.112;8.606;2023-06-10T04:34:44;4.78;;;3.67;;
10410;SDS011;5251;52.112;8.606;2023-06-10T04:37:09;4.15;;;3.60;;
10410;SDS011;5251;52.112;8.606;2023-06-10T04:39:35;5.05;;;3.60;;
10410;SDS011;5251;52.112;8.606;2023-06-10T04:42:00;6.72;;;3.40;;
10410;SDS011;5251;52.112;8.606;2023-06-10T04:44:26;5.45;;;3.70;;
10410;SDS011;5251;52.112;8.606;2023-06-10T04:46:52;4.95;;;3.50;;
10410;SDS011;5251;52.112;8.606;2023-06-10T04:49:17;5.38;;;3.40;;
10410;SDS011;5251;52.112;8.606;2023-06-10T04:51:43;5.35;;;3.47;;
10410;SDS011;5251;52.112;8.606;2023-06-10T04:54:09;5.30;;;3.20;;
10410;SDS011;5251;52.112;8.606;2023-06-10T04:56:34;6.72;;;3.80;;
10410;SDS011;5251;52.112;8.606;2023-06-10T04:59:00;4.38;;;3.45;;
10410;SDS011;5251;52.112;8.606;2023-06-10T05:01:25;5.97;;;3.30;;
10410;SDS011;5251;52.112;8.606;2023-06-10T05:03:52;4.55;;;3.40;;
10410;SDS011;5251;52.112;8.606;2023-06-10T05:06:18;4.78;;;3.45;;
10410;SDS011;5251;52.112;8.606;2023-06-10T05:08:43;5.63;;;3.17;;
10410;SDS011;5251;52.112;8.606;2023-06-10T05:11:09;6.30;;;3.50;;
10410;SDS011;5251;52.112;8.606;2023-06-10T05:13:35;4.55;;;3.20;;
10410;SDS011;5251;52.112;8.606;2023-06-10T05:16:00;4.78;;;3.13;;
10410;SDS011;5251;52.112;8.606;2023-06-10T05:18:27;3.40;;;3.10;;
10410;SDS011;5251;52.112;8.606;2023-06-10T05:20:52;3.80;;;3.28;;
10410;SDS011;5251;52.112;8.606;2023-06-10T05:23:19;3.45;;;3.08;;
10410;SDS011;5251;52.112;8.606;2023-06-10T05:25:44;3.97;;;3.08;;
10410;SDS011;5251;52.112;8.606;2023-06-10T05:28:10;4.57;;;3.20;;
10410;SDS011;5251;52.112;8.606;2023-06-10T05:30:36;4.75;;;3.42;;
10410;SDS011;5251;52.112;8.606;2023-06-10T05:33:02;4.40;;;2.78;;
10410;SDS011;5251;52.112;8.606;2023-06-10T05:35:29;3.50;;;3.20;;
10410;SDS011;5251;52.112;8.606;2023-06-10T05:37:55;4.28;;;2.97;;
10410;SDS011;5251;52.112;8.606;2023-06-10T05:40:20;4.18;;;3.03;;
10410;SDS011;5251;52.112;8.606;2023-06-10T05:42:46;7.90;;;3.78;;
10410;SDS011;5251;52.112;8.606;2023-06-10T05:45:11;6.18;;;3.00;;
10410;SDS011;5251;52.112;8.606;2023-06-10T05:47:37;4.65;;;2.97;;
10410;SDS011;5251;52.112;8.606;2023-06-10T05:50:03;5.82;;;2.85;;
10410;SDS011;5251;52.112;8.606;2023-06-10T05:52:32;4.28;;;3.10;;
10410;SDS011;5251;52.112;8.606;2023-06-10T05:54:58;4.93;;;3.42;;
10410;SDS011;5251;52.112;8.606;2023-06-10T05:57:24;4.97;;;3.38;;
10410;SDS011;5251;52.112;8.606;2023-06-10T05:59:51;6.78;;;3.42;;
10410;SDS011;5251;52.112;8.606;2023-06-10T06:02:17;4.38;;;3.17;;
10410;SDS011;5251;52.112;8.606;2023-06-10T06:04:42;4.20;;;3.25;;
10410;SDS011;5251;52.112;8.606;2023-06-10T06:07:08;3.53;;;2.90;;
10410;SDS011;5251;52.112;8.606;2023-06-10T06:09:33;4.50;;;3.10;;
10410;SDS011;5251;52.112;8.606;2023-06-10T06:11:59;4.95;;;2.88;;
10410;SDS011;5251;52.112;8.606;2023-06-10T06:14:25;5.60;;;3.28;;
10410;SDS011;5251;52.112;8.606;2023-06-10T06:16:50;4.85;;;3.20;;
10410;SDS011;5251;52.112;8.606;2023-06-10T06:19:16;4.60;;;3.35;;
10410;SDS011;5251;52.112;8.606;2023-06-10T06:21:41;5.35;;;3.40;;
10410;SDS011;5251;52.112;8.606;2023-06-10T06:24:07;5.68;;;3.22;;
10410;SDS011;5251;52.112;8.606;2023-06-10T06:26:32;4.05;;;2.90;;
10410;SDS011;5251;52.112;8.606;2023-06-10T06:28:58;4.13;;;3.10;;
10410;SDS011;5251;52.112;8.606;2023-06-10T06:31:24;6.28;;;3.30;;
10410;SDS011;5251;52.112;8.606;2023-06-10T06:33:49;4.50;;;3.22;;
10410;SDS011;5251;52.112;8.606;2023-06-10T06:36:15;4.50;;;2.85;;
10410;SDS011;5251;52.112;8.606;2023-06-10T06:38:40;3.55;;;2.97;;
10410;SDS011;5251;52.112;8.606;2023-06-10T06:41:06;5.00;;;3.30;;
10410;SDS011;5251;52.112;8.606;2023-06-10T06:43:32;3.97;;;3.10;;
10410;SDS011;5251;52.112;8.606;2023-06-10T06:45:57;4.22;;;3.20;;
10410;SDS011;5251;52.112;8.606;2023-06-10T06:48:23;3.60;;;3.20;;
10410;SDS011;5251;52.112;8.606;2023-06-10T06:50:49;4.10;;;3.00;;
10410;SDS011;5251;52.112;8.606;2023-06-10T06:53:15;5.30;;;3.10;;
10410;SDS011;5251;52.112;8.606;2023-06-10T06:55:40;4.78;;;3.17;;
10410;SDS011;5251;52.112;8.606;2023-06-10T06:58:06;5.38;;;3.28;;
10410;SDS011;5251;52.112;8.606;2023-06-10T07:00:32;5.60;;;3.20;;
10410;SDS011;5251;52.112;8.606;2023-06-10T07:02:57;4.47;;;3.47;;
10410;SDS011;5251;52.112;8.606;2023-06-10T07:05:24;5.28;;;3.20;;
10410;SDS011;5251;52.112;8.606;2023-06-10T07:07:52;3.13;;;2.83;;
10410;SDS011;5251;52.112;8.606;2023-06-10T07:10:23;5.47;;;3.30;;
10410;SDS011;5251;52.112;8.606;2023-06-10T07:12:49;4.63;;;2.92;;
10410;SDS011;5251;52.112;8.606;2023-06-10T07:15:15;4.32;;;2.88;;
10410;SDS011;5251;52.112;8.606;2023-06-10T07:17:41;3.97;;;2.95;;
10410;SDS011;5251;52.112;8.606;2023-06-10T07:20:07;7.68;;;3.30;;
10410;SDS011;5251;52.112;8.606;2023-06-10T07:22:33;4.25;;;3.10;;
10410;SDS011;5251;52.112;8.606;2023-06-10T07:24:58;4.63;;;2.80;;
10410;SDS011;5251;52.112;8.606;2023-06-10T07:27:24;3.65;;;3.20;;
10410;SDS011;5251;52.112;8.606;2023-06-10T07:29:50;5.20;;;3.47;;
10410;SDS011;5251;52.112;8.606;2023-06-10T07:32:16;5.45;;;3.30;;
10410;SDS011;5251;52.112;8.606;2023-06-10T07:34:41;3.47;;;3.17;;
10410;SDS011;5251;52.112;8.606;2023-06-10T07:37:07;4.75;;;3.10;;
10410;SDS011;5251;52.112;8.606;2023-06-10T07:39:34;4.35;;;3.10;;
10410;SDS011;5251;52.112;8.606;2023-06-10T07:41:59;3.83;;;2.90;;
10410;SDS011;5251;52.112;8.606;2023-06-10T07:44:25;4.28;;;2.75;;
10410;SDS011;5251;52.112;8.606;2023-06-10T07:46:51;5.90;;;3.25;;
10410;SDS011;5251;52.112;8.606;2023-06-10T07:49:17;5.40;;;3.17;;
10410;SDS011;5251;52.112;8.606;2023-06-10T07:51:42;3.63;;;3.10;;
10410;SDS011;5251;52.112;8.606;2023-06-10T07:54:08;3.78;;;3.13;;
10410;SDS011;5251;52.112;8.606;2023-06-10T07:56:33;5.20;;;3.05;;
10410;SDS011;5251;52.112;8.606;2023-06-10T07:58:59;11.95;;;3.30;;
10410;SDS011;5251;52.112;8.606;2023-06-10T08:01:25;3.42;;;2.92;;
10410;SDS011;5251;52.112;8.606;2023-06-10T08:03:51;6.70;;;3.25;;
10410;SDS011;5251;52.112;8.606;2023-06-10T08:06:16;4.03;;;3.15;;
10410;SDS011;5251;52.112;8.606;2023-06-10T08:08:42;5.07;;;3.20;;
10410;SDS011;5251;52.112;8.606;2023-06-10T08:11:10;5.22;;;2.92;;
10410;SDS011;5251;52.112;8.606;2023-06-10T08:13:36;4.70;;;3.30;;
10410;SDS011;5251;52.112;8.606;2023-06-10T08:16:02;4.70;;;3.15;;
10410;SDS011;5251;52.112;8.606;2023-06-10T08:18:28;9.18;;;3.72;;
10410;SDS011;5251;52.112;8.606;2023-06-10T08:20:53;5.45;;;3.38;;
10410;SDS011;5251;52.112;8.606;2023-06-10T08:23:19;6.88;;;3.13;;
10410;SDS011;5251;52.112;8.606;2023-06-10T08:25:45;5.57;;;3.33;;
10410;SDS011;5251;52.112;8.606;2023-06-10T08:28:10;5.95;;;3.45;;
10410;SDS011;5251;52.112;8.606;2023-06-10T08:30:36;8.27;;;3.53;;
10410;SDS011;5251;52.112;8.606;2023-06-10T08:33:02;5.43;;;3.53;;
10410;SDS011;5251;52.112;8.606;2023-06-10T08:35:27;5.43;;;3.08;;
10410;SDS011;5251;52.112;8.606;2023-06-10T08:37:53;3.80;;;3.22;;
10410;SDS011;5251;52.112;8.606;2023-06-10T08:40:18;3.75;;;3.28;;
10410;SDS011;5251;52.112;8.606;2023-06-10T08:45:25;5.07;;;3.00;;
10410;SDS011;5251;52.112;8.606;2023-06-10T08:48:00;5.57;;;3.00;;
10410;SDS011;5251;52.112;8.606;2023-06-10T08:50:32;4.60;;;3.40;;
10410;SDS011;5251;52.112;8.606;2023-06-10T08:53:01;6.00;;;4.00;;
10410;SDS011;5251;52.112;8.606;2023-06-10T08:55:30;4.93;;;3.28;;
10410;SDS011;5251;52.112;8.606;2023-06-10T08:58:17;5.43;;;4.05;;
10410;SDS011;5251;52.112;8.606;2023-06-10T09:00:44;7.45;;;3.55;;
10410;SDS011;5251;52.112;8.606;2023-06-10T09:03:10;5.95;;;4.00;;
10410;SDS011;5251;52.112;8.606;2023-06-10T09:05:36;5.28;;;3.70;;
10410;SDS011;5251;52.112;8.606;2023-06-10T09:08:03;4.85;;;4.07;;
10410;SDS011;5251;52.112;8.606;2023-06-10T09:10:30;5.22;;;3.70;;
10410;SDS011;5251;52.112;8.606;2023-06-10T09:12:57;4.75;;;3.80;;
10410;SDS011;5251;52.112;8.606;2023-06-10T09:15:23;5.13;;;4.03;;
10410;SDS011;5251;52.112;8.606;2023-06-10T09:17:48;5.55;;;4.15;;
10410;SDS011;5251;52.112;8.606;2023-06-10T09:20:14;4.47;;;3.78;;
10410;SDS011;5251;52.112;8.606;2023-06-10T09:22:40;5.00;;;3.92;;
10410;SDS011;5251;52.112;8.606;2023-06-10T09:25:08;6.30;;;4.05;;
10410;SDS011;5251;52.112;8.606;2023-06-10T09:30:34;6.40;;;3.97;;
10410;SDS011;5251;52.112;8.606;2023-06-10T09:33:01;5.47;;;4.28;;
10410;SDS011;5251;52.112;8.606;2023-06-10T09:35:28;5.07;;;4.22;;
10410;SDS011;5251;52.112;8.606;2023-06-10T09:37:56;5.10;;;3.95;;
10410;SDS011;5251;52.112;8.606;2023-06-10T09:40:23;5.68;;;4.10;;
10410;SDS011;5251;52.112;8.606;2023-06-10T09:42:53;4.78;;;3.58;;
10410;SDS011;5251;52.112;8.606;2023-06-10T09:45:20;7.13;;;3.95;;
10410;SDS011;5251;52.112;8.606;2023-06-10T09:47:47;4.75;;;3.58;;
10410;SDS011;5251;52.112;8.606;2023-06-10T09:50:16;4.30;;;3.70;;
10410;SDS011;5251;52.112;8.606;2023-06-10T09:52:42;4.13;;;3.58;;
10410;SDS011;5251;52.112;8.606;2023-06-10T09:55:08;5.93;;;3.85;;
10410;SDS011;5251;52.112;8.606;2023-06-10T09:57:35;6.25;;;3.88;;
10410;SDS011;5251;52.112;8.606;2023-06-10T10:00:19;4.55;;;3.58;;
10410;SDS011;5251;52.112;8.606;2023-06-10T10:02:47;4.45;;;3.63;;
10410;SDS011;5251;52.112;8.606;2023-06-10T10:05:18;5.13;;;3.72;;
10410;SDS011;5251;52.112;8.606;2023-06-10T10:07:47;4.97;;;3.92;;
10410;SDS011;5251;52.112;8.606;2023-06-10T10:10:14;6.03;;;3.88;;
10410;SDS011;5251;52.112;8.606;2023-06-10T10:12:41;4.90;;;3.67;;
10410;SDS011;5251;52.112;8.606;2023-06-10T10:15:08;6.63;;;4.05;;
10410;SDS011;5251;52.112;8.606;2023-06-10T10:17:46;4.88;;;3.90;;
10410;SDS011;5251;52.112;8.606;2023-06-10T10:20:13;4.43;;;3.15;;
10410;SDS011;5251;52.112;8.606;2023-06-10T10:22:43;4.57;;;3.67;;
10410;SDS011;5251;52.112;8.606;2023-06-10T10:25:11;4.93;;;3.95;;
10410;SDS011;5251;52.112;8.606;2023-06-10T10:27:43;3.85;;;3.30;;
10410;SDS011;5251;52.112;8.606;2023-06-10T10:30:35;5.88;;;3.35;;
10410;SDS011;5251;52.112;8.606;2023-06-10T10:33:06;5.72;;;3.63;;
10410;SDS011;5251;52.112;8.606;2023-06-10T10:35:43;5.65;;;3.60;;
10410;SDS011;5251;52.112;8.606;2023-06-10T10:38:10;4.30;;;3.67;;
10410;SDS011;5251;52.112;8.606;2023-06-10T10:40:36;4.40;;;3.60;;
10410;SDS011;5251;52.112;8.606;2023-06-10T10:43:03;3.67;;;3.38;;
10410;SDS011;5251;52.112;8.606;2023-06-10T10:45:29;3.72;;;3.08;;
10410;SDS011;5251;52.112;8.606;2023-06-10T10:47:55;5.07;;;3.35;;
10410;SDS011;5251;52.112;8.606;2023-06-10T10:50:22;4.57;;;3.20;;
10410;SDS011;5251;52.112;8.606;2023-06-10T10:52:52;4.55;;;3.30;;
10410;SDS011;5251;52.112;8.606;2023-06-10T10:55:24;4.38;;;3.13;;
10410;SDS011;5251;52.112;8.606;2023-06-10T10:58:04;4.22;;;3.65;;
10410;SDS011;5251;52.112;8.606;2023-06-10T11:00:30;4.88;;;3.47;;
10410;SDS011;5251;52.112;8.606;2023-06-10T11:03:04;4.53;;;3.53;;
10410;SDS011;5251;52.112;8.606;2023-06-10T11:05:35;4.43;;;3.22;;
10410;SDS011;5251;52.112;8.606;2023-06-10T11:08:03;5.03;;;2.95;;
10410;SDS011;5251;52.112;8.606;2023-06-10T11:10:33;4.70;;;3.30;;
10410;SDS011;5251;52.112;8.606;2023-06-10T11:13:00;3.20;;;2.90;;
10410;SDS011;5251;52.112;8.606;2023-06-10T11:15:31;3.08;;;2.78;;
10410;SDS011;5251;52.112;8.606;2023-06-10T11:18:07;5.47;;;3.20;;
10410;SDS011;5251;52.112;8.606;2023-06-10T11:28:37;4.65;;;3.38;;
10410;SDS011;5251;52.112;8.606;2023-06-10T11:31:03;3.63;;;2.83;;
10410;SDS011;5251;52.112;8.606;2023-06-10T11:33:28;3.60;;;3.20;;
10410;SDS011;5251;52.112;8.606;2023-06-10T11:35:55;3.30;;;2.97;;
10410;SDS011;5251;52.112;8.606;2023-06-10T11:38:21;4.22;;;3.20;;
10410;SDS011;5251;52.112;8.606;2023-06-10T11:40:49;3.13;;;2.80;;
10410;SDS011;5251;52.112;8.606;2023-06-10T11:43:19;4.18;;;2.90;;
10410;SDS011;5251;52.112;8.606;2023-06-10T11:45:45;4.78;;;2.88;;
10410;SDS011;5251;52.112;8.606;2023-06-10T11:48:12;3.92;;;3.13;;
10410;SDS011;5251;52.112;8.606;2023-06-10T11:50:38;6.30;;;3.30;;
10410;SDS011;5251;52.112;8.606;2023-06-10T11:53:04;4.47;;;2.92;;
10410;SDS011;5251;52.112;8.606;2023-06-10T11:55:51;3.50;;;3.00;;
10410;SDS011;5251;52.112;8.606;2023-06-10T11:58:18;5.00;;;3.25;;
10410;SDS011;5251;52.112;8.606;2023-06-10T12:00:48;3.22;;;2.88;;
10410;SDS011;5251;52.112;8.606;2023-06-10T12:03:24;3.78;;;3.03;;
10410;SDS011;5251;52.112;8.606;2023-06-10T12:05:56;3.47;;;2.95;;
10410;SDS011;5251;52.112;8.606;2023-06-10T12:08:23;3.33;;;2.80;;
10410;SDS011;5251;52.112;8.606;2023-06-10T12:10:49;3.30;;;2.88;;
10410;SDS011;5251;52.112;8.606;2023-06-10T12:13:15;4.38;;;2.90;;
10410;SDS011;5251;52.112;8.606;2023-06-10T12:15:42;4.72;;;3.00;;
10410;SDS011;5251;52.112;8.606;2023-06-10T12:18:15;3.22;;;2.83;;
10410;SDS011;5251;52.112;8.606;2023-06-10T12:20:50;3.75;;;3.00;;
10410;SDS011;5251;52.112;8.606;2023-06-10T12:23:16;3.50;;;3.15;;
10410;SDS011;5251;52.112;8.606;2023-06-10T12:25:53;4.10;;;3.30;;
10410;SDS011;5251;52.112;8.606;2023-06-10T12:28:22;4.70;;;3.22;;
10410;SDS011;5251;52.112;8.606;2023-06-10T12:30:48;3.30;;;2.90;;
10410;SDS011;5251;52.112;8.606;2023-06-10T12:33:18;3.85;;;3.22;;
10410;SDS011;5251;52.112;8.606;2023-06-10T12:35:48;5.72;;;3.53;;
10410;SDS011;5251;52.112;8.606;2023-06-10T12:38:15;3.60;;;3.05;;
10410;SDS011;5251;52.112;8.606;2023-06-10T12:40:52;5.10;;;3.20;;
10410;SDS011;5251;52.112;8.606;2023-06-10T12:43:22;4.63;;;3.47;;
10410;SDS011;5251;52.112;8.606;2023-06-10T12:45:48;5.18;;;3.22;;
10410;SDS011;5251;52.112;8.606;2023-06-10T12:48:21;5.82;;;3.30;;
10410;SDS011;5251;52.112;8.606;2023-06-10T12:50:51;4.57;;;3.03;;
10410;SDS011;5251;52.112;8.606;2023-06-10T12:53:18;3.72;;;3.30;;
10410;SDS011;5251;52.112;8.606;2023-06-10T12:55:45;4.07;;;3.08;;
10410;SDS011;5251;52.112;8.606;2023-06-10T12:58:14;3.40;;;3.00;;
10410;SDS011;5251;52.112;8.606;2023-06-10T13:00:39;3.78;;;3.40;;
10410;SDS011;5251;52.112;8.606;2023-06-10T13:03:07;6.50;;;3.63;;
10410;SDS011;5251;52.112;8.606;2023-06-10T13:05:34;3.65;;;2.95;;
10410;SDS011;5251;52.112;8.606;2023-06-10T13:08:02;4.90;;;3.25;;
10410;SDS011;5251;52.112;8.606;2023-06-10T13:10:28;4.90;;;3.30;;
10410;SDS011;5251;52.112;8.606;2023-06-10T13:12:54;3.78;;;3.10;;
10410;SDS011;5251;52.112;8.606;2023-06-10T13:15:19;3.55;;;3.25;;
10410;SDS011;5251;52.112;8.606;2023-06-10T13:17:45;4.05;;;3.17;;
10410;SDS011;5251;52.112;8.606;2023-06-10T13:20:15;5.18;;;3.50;;
10410;SDS011;5251;52.112;8.606;2023-06-10T13:22:41;4.00;;;3.40;;
10410;SDS011;5251;52.112;8.606;2023-06-10T13:25:07;4.15;;;3.50;;
10410;SDS011;5251;52.112;8.606;2023-06-10T13:27:33;3.75;;;3.42;;
10410;SDS011;5251;52.112;8.606;2023-06-10T13:30:00;4.32;;;3.47;;
10410;SDS011;5251;52.112;8.606;2023-06-10T13:32:25;7.20;;;3.70;;
10410;SDS011;5251;52.112;8.606;2023-06-10T13:34:51;4.25;;;3.60;;
10410;SDS011;5251;52.112;8.606;2023-06-10T13:37:18;5.60;;;3.65;;
10410;SDS011;5251;52.112;8.606;2023-06-10T13:39:44;4.50;;;3.50;;
10410;SDS011;5251;52.112;8.606;2023-06-10T13:42:13;4.43;;;3.75;;
10410;SDS011;5251;52.112;8.606;2023-06-10T13:44:39;4.70;;;3.78;;
10410;SDS011;5251;52.112;8.606;2023-06-10T13:47:05;4.18;;;3.78;;
10410;SDS011;5251;52.112;8.606;2023-06-10T13:49:31;4.85;;;3.65;;
10410;SDS011;5251;52.112;8.606;2023-06-10T13:51:57;5.22;;;3.47;;
10410;SDS011;5251;52.112;8.606;2023-06-10T13:54:22;4.45;;;4.03;;
10410;SDS011;5251;52.112;8.606;2023-06-10T13:56:48;4.05;;;3.30;;
10410;SDS011;5251;52.112;8.606;2023-06-10T13:59:14;4.28;;;3.88;;
10410;SDS011;5251;52.112;8.606;2023-06-10T14:01:39;4.20;;;3.80;;
10410;SDS011;5251;52.112;8.606;2023-06-10T14:04:06;4.35;;;3.45;;
10410;SDS011;5251;52.112;8.606;2023-06-10T14:06:32;5.35;;;3.85;;
10410;SDS011;5251;52.112;8.606;2023-06-10T14:08:58;5.03;;;3.97;;
10410;SDS011;5251;52.112;8.606;2023-06-10T14:11:24;4.47;;;3.92;;
10410;SDS011;5251;52.112;8.606;2023-06-10T14:13:50;3.92;;;3.50;;
10410;SDS011;5251;52.112;8.606;2023-06-10T14:16:16;6.75;;;4.00;;
10410;SDS011;5251;52.112;8.606;2023-06-10T14:18:41;4.22;;;3.55;;
10410;SDS011;5251;52.112;8.606;2023-06-10T14:21:07;4.88;;;3.90;;
10410;SDS011;5251;52.112;8.606;2023-06-10T14:23:32;5.88;;;4.53;;
10410;SDS011;5251;52.112;8.606;2023-06-10T14:25:58;5.10;;;3.40;;
10410;SDS011;5251;52.112;8.606;2023-06-10T14:28:24;4.43;;;4.03;;
10410;SDS011;5251;52.112;8.606;2023-06-10T14:30:51;4.45;;;4.03;;
10410;SDS011;5251;52.112;8.606;2023-06-10T14:33:17;4.50;;;3.88;;
10410;SDS011;5251;52.112;8.606;2023-06-10T14:35:43;5.03;;;4.35;;
10410;SDS011;5251;52.112;8.606;2023-06-10T14:38:09;4.82;;;4.10;;
10410;SDS011;5251;52.112;8.606;2023-06-10T14:40:35;6.13;;;4.00;;
10410;SDS011;5251;52.112;8.606;2023-06-10T14:43:00;3.95;;;3.65;;
10410;SDS011;5251;52.112;8.606;2023-06-10T14:45:29;4.63;;;4.22;;
10410;SDS011;5251;52.112;8.606;2023-06-10T14:47:54;4.82;;;3.85;;
10410;SDS011;5251;52.112;8.606;2023-06-10T14:50:20;4.93;;;4.18;;
10410;SDS011;5251;52.112;8.606;2023-06-10T14:52:45;5.95;;;4.35;;
10410;SDS011;5251;52.112;8.606;2023-06-10T14:55:11;4.40;;;4.00;;
10410;SDS011;5251;52.112;8.606;2023-06-10T14:57:36;5.20;;;4.45;;
10410;SDS011;5251;52.112;8.606;2023-06-10T15:00:02;4.45;;;3.80;;
10410;SDS011;5251;52.112;8.606;2023-06-10T15:02:28;5.65;;;4.40;;
10410;SDS011;5251;52.112;8.606;2023-06-10T15:04:54;4.22;;;3.85;;
10410;SDS011;5251;52.112;8.606;2023-06-10T15:07:19;4.60;;;4.20;;
10410;SDS011;5251;52.112;8.606;2023-06-10T15:09:45;5.28;;;4.20;;
10410;SDS011;5251;52.112;8.606;2023-06-10T15:12:11;4.82;;;4.43;;
10410;SDS011;5251;52.112;8.606;2023-06-10T15:14:36;4.80;;;4.40;;